KBVY/BVY METAR and TAF weather

Enter ICAO airport designator
Station Type Date Time Source
KBVY METAR 2018/04/19 13:32 UTC NOAA

KBVY 191332Z 31004KT 3SM -SN BR BKN004 OVC022 02/01 A2973 RMK AO2 P0002 T00170006


Station Type Date Time Source
KBVY Decoded METAR 2018/04/19 13:32 UTC NOAA

BEVERLY MUNICIPAL AIRPORT, MA, United States (KBVY) 42-35N 070-55W 28M
Apr 19, 2018 - 09:32 AM EDT / 2018.04.19 1332 UTC
Wind: from the NW (310 degrees) at 5 MPH (4 KT):0
Visibility: 3 mile(s):0
Sky conditions: overcast
Weather: light snow; mist
Precipitation last hour: 0.02 inches
Temperature: 35.1 F (1.7 C)
Dew Point: 33.1 F (0.6 C)
Relative Humidity: 92%
Pressure (altimeter): 29.73 in. Hg (1006 hPa)
ob: KBVY 191332Z 31004KT 3SM -SN BR BKN004 OVC022 02/01 A2973 RMK AO2 P0002 T00170006
cycle: 13

Station Type Date Time Source
KBVY TAF UTC NOAA

Error!


Example: see airport list